Time;durP1;ratioP1;P1;durP2;ratioP2;P2;SDS_P1;SDS_P2;PMS_P1;PMS_P2;Temp;Humidity;BMP_temperature;BMP_pressure;BME280_temperature;BME280_humidity;BME280_pressure;Samples;Min_cycle;Max_cycle;Signal;HPM_P1;HPM_P2
2021/06/27 00:01:50;;;;;;;;;;;;;;;-142.75;76.88;76944.31;5067361;28;19925;-79
2021/06/27 00:04:17;;;;;;;;;;;;;;;-142.75;76.91;76946.28;5055577;28;19928;-79
2021/06/27 00:06:42;;;;;;;;;;;;;;;-142.75;76.92;76944.31;5067238;28;19975;-78
2021/06/27 00:09:08;;;;;;;;;;;;;;;-142.75;76.88;76952.19;5064575;28;19917;-77
2021/06/27 00:11:34;;;;;;;;;;;;;;;-142.75;76.87;76956.13;5060632;28;19924;-78
2021/06/27 00:13:59;;;;;;;;;;;;;;;-142.75;76.82;76958.09;5062814;28;20003;-77
2021/06/27 00:16:28;;;;;;;;;;;;;;;-142.75;76.84;76956.13;5065644;28;20395;-77
2021/06/27 00:18:53;;;;;;;;;;;;;;;-142.75;76.78;76954.16;5061613;28;19916;-78
2021/06/27 00:21:18;;;;;;;;;;;;;;;-142.75;76.80;76958.09;5060995;28;19940;-79
2021/06/27 00:23:45;;;;;;;;;;;;;;;-142.75;76.88;76958.09;5054533;28;19924;-78
2021/06/27 00:26:12;;;;;;;;;;;;;;;-142.75;76.78;76954.16;5065209;28;19923;-79
2021/06/27 00:28:38;;;;;;;;;;;;;;;-142.75;76.79;76956.13;5053508;28;19967;-78
2021/06/27 00:31:03;;;;;;;;;;;;;;;-142.75;76.82;76960.06;5055708;28;19917;-78
2021/06/27 00:33:29;;;;;;;;;;;;;;;-142.75;76.61;76964.00;5053771;28;19916;-78
2021/06/27 00:35:54;;;;;;;;;;;;;;;-142.75;76.51;76971.88;5067907;28;19921;-78
2021/06/27 00:38:19;;;;;;;;;;;;;;;-142.75;76.47;76979.75;5069525;28;20022;-78
2021/06/27 00:40:45;;;;;;;;;;;;;;;-142.75;76.28;76983.69;5069101;28;19916;-79
2021/06/27 00:43:10;;;;;;;;;;;;;;;-142.75;76.39;76981.72;5058055;28;19920;-78
2021/06/27 00:45:36;;;;;;;;;;;;;;;-142.75;76.46;76985.66;5058773;28;20077;-78
2021/06/27 00:48:01;;;;;;;;;;;;;;;-142.75;76.49;76989.59;5065088;28;19924;-79
2021/06/27 00:50:31;;;;;;;;;;;;;;;-142.75;76.66;76983.69;5061706;28;20055;-78
2021/06/27 00:52:57;;;;;;;;;;;;;;;-142.75;76.60;76991.56;5063275;28;19942;-77
2021/06/27 00:55:22;;;;;;;;;;;;;;;-142.75;76.68;76987.63;5068248;28;19927;-78
2021/06/27 00:57:49;;;;;;;;;;;;;;;-142.75;76.65;76981.72;5070076;28;19916;-79
2021/06/27 01:00:15;;;;;;;;;;;;;;;-142.75;76.70;76981.72;5056290;28;20336;-79
2021/06/27 01:02:41;;;;;;;;;;;;;;;-142.75;76.85;76977.78;5056009;28;19916;-78
2021/06/27 01:05:08;;;;;;;;;;;;;;;-142.75;76.85;76975.81;5057215;28;19946;-79
2021/06/27 01:07:33;;;;;;;;;;;;;;;-142.75;76.87;76975.81;5067864;28;20003;-78
2021/06/27 01:09:58;;;;;;;;;;;;;;;-142.75;76.88;76979.75;5058744;28;19959;-79
2021/06/27 01:12:23;;;;;;;;;;;;;;;-142.75;76.93;76977.78;5056423;28;20008;-78
2021/06/27 01:14:49;;;;;;;;;;;;;;;-142.75;76.96;76973.84;5063823;28;19917;-79
2021/06/27 01:17:14;;;;;;;;;;;;;;;-142.75;77.06;76975.81;5062011;28;19920;-79
2021/06/27 01:19:39;;;;;;;;;;;;;;;-142.75;77.04;76975.81;5054362;28;19916;-78
2021/06/27 01:22:04;;;;;;;;;;;;;;;-142.75;77.24;76967.94;5053027;28;19916;-79
2021/06/27 01:24:29;;;;;;;;;;;;;;;-142.75;77.31;76971.88;5055711;28;19944;-80
2021/06/27 01:26:55;;;;;;;;;;;;;;;-142.75;77.27;76975.81;5055890;28;20297;-80
2021/06/27 01:29:20;;;;;;;;;;;;;;;-142.75;77.28;76971.88;5055246;28;19920;-79
2021/06/27 01:31:46;;;;;;;;;;;;;;;-142.75;77.13;76975.81;5066521;28;19939;-79
2021/06/27 01:34:12;;;;;;;;;;;;;;;-142.75;77.41;76962.03;5064973;28;19954;-78
2021/06/27 01:36:37;;;;;;;;;;;;;;;-142.75;77.31;76969.91;5055994;28;19924;-78
2021/06/27 01:39:03;;;;;;;;;;;;;;;-142.75;77.38;76973.84;5055582;28;20309;-78
2021/06/27 01:41:28;;;;;;;;;;;;;;;-142.75;77.49;76958.09;5054469;28;19942;-79
2021/06/27 01:43:54;;;;;;;;;;;;;;;-142.75;77.71;76954.16;5054624;28;19928;-78
2021/06/27 01:46:19;;;;;;;;;;;;;;;-142.75;77.77;76952.19;5072017;28;19958;-77
2021/06/27 01:48:44;;;;;;;;;;;;;;;-142.75;77.70;76960.06;5062405;28;20019;-78
2021/06/27 01:51:10;;;;;;;;;;;;;;;-142.75;77.71;76960.06;5051029;28;20608;-78
2021/06/27 01:53:36;;;;;;;;;;;;;;;-142.75;77.67;76960.06;5065398;28;19992;-78
2021/06/27 01:56:06;;;;;;;;;;;;;;;-142.75;77.59;76965.97;5055960;28;19917;-78
2021/06/27 01:58:36;;;;;;;;;;;;;;;-142.75;77.46;76973.84;5054065;28;19938;-80
2021/06/27 02:01:01;;;;;;;;;;;;;;;-142.75;77.27;76979.75;5054203;28;19959;-79
2021/06/27 02:03:26;;;;;;;;;;;;;;;-142.75;77.16;76981.72;5066087;28;19968;-79
2021/06/27 02:05:51;;;;;;;;;;;;;;;-142.75;77.07;76989.59;5064609;28;20027;-78
2021/06/27 02:08:17;;;;;;;;;;;;;;;-142.75;76.77;77003.38;5054303;28;20381;-77
2021/06/27 02:10:42;;;;;;;;;;;;;;;-142.75;76.67;77003.38;5053383;28;19920;-78
2021/06/27 02:13:07;;;;;;;;;;;;;;;-142.75;76.60;77001.41;5071716;28;19947;-77
2021/06/27 02:15:33;;;;;;;;;;;;;;;-142.75;76.36;77007.31;5060548;28;20325;-78
2021/06/27 02:18:07;;;;;;;;;;;;;;;-142.75;76.30;77013.22;5053973;28;19917;-77
2021/06/27 02:20:32;;;;;;;;;;;;;;;-142.75;76.37;77015.19;5050531;28;21564;-79
2021/06/27 02:22:57;;;;;;;;;;;;;;;-142.75;76.38;77015.19;5052109;28;19928;-79
2021/06/27 02:25:22;;;;;;;;;;;;;;;-142.75;76.57;77021.09;5051856;28;19936;-79
2021/06/27 02:27:48;;;;;;;;;;;;;;;-142.75;76.59;77015.19;5057211;28;20560;-79
2021/06/27 02:30:14;;;;;;;;;;;;;;;-142.75;76.64;77019.13;5053390;28;20038;-80
2021/06/27 02:32:39;;;;;;;;;;;;;;;-142.75;76.87;77019.13;5071496;28;19925;-79
2021/06/27 02:35:04;;;;;;;;;;;;;;;-142.75;76.84;77023.06;5071616;28;20305;-79
2021/06/27 02:37:29;;;;;;;;;;;;;;;-142.75;76.97;77019.13;5071993;28;20278;-79
2021/06/27 02:39:55;;;;;;;;;;;;;;;-142.75;77.01;77021.09;5071729;28;19921;-79
2021/06/27 02:42:20;;;;;;;;;;;;;;;-142.75;76.99;77021.09;5053515;28;19999;-79
2021/06/27 02:44:45;;;;;;;;;;;;;;;-142.75;76.91;77021.09;5053216;28;19937;-79
2021/06/27 02:47:10;;;;;;;;;;;;;;;-142.75;76.97;77019.13;5071135;28;19962;-80
2021/06/27 02:49:35;;;;;;;;;;;;;;;-142.75;77.04;77011.25;5071037;28;19925;-79
2021/06/27 02:52:02;;;;;;;;;;;;;;;-142.75;77.12;77007.31;5051674;28;19931;-79
2021/06/27 02:54:27;;;;;;;;;;;;;;;-142.75;77.13;77003.38;5060881;28;20290;-77
2021/06/27 02:56:52;;;;;;;;;;;;;;;-142.75;77.07;77007.31;5052592;28;19923;-80
2021/06/27 02:59:18;;;;;;;;;;;;;;;-142.75;77.07;77009.28;5061598;28;20054;-80
2021/06/27 03:01:43;;;;;;;;;;;;;;;-142.75;77.01;77011.25;5052681;28;20007;-79
2021/06/27 03:04:08;;;;;;;;;;;;;;;-142.75;76.92;77011.25;5051448;28;20386;-79
2021/06/27 03:06:33;;;;;;;;;;;;;;;-142.75;76.93;77009.28;5052725;28;19917;-79
2021/06/27 03:08:58;;;;;;;;;;;;;;;-142.75;76.92;77007.31;5052026;28;20291;-77
2021/06/27 03:11:24;;;;;;;;;;;;;;;-142.75;77.04;77009.28;5049997;28;19927;-77
2021/06/27 03:13:49;;;;;;;;;;;;;;;-142.75;76.57;77013.22;5050135;28;19924;-78
2021/06/27 03:16:14;;;;;;;;;;;;;;;-142.75;76.41;77023.06;5050128;28;19920;-78
2021/06/27 03:18:39;;;;;;;;;;;;;;;-142.75;76.33;77027.00;5069711;28;19924;-77
2021/06/27 03:21:05;;;;;;;;;;;;;;;-142.75;76.12;77030.94;5069220;28;19917;-77
2021/06/27 03:23:30;;;;;;;;;;;;;;;-142.75;75.91;77034.88;5069043;28;19920;-78
2021/06/27 03:25:56;;;;;;;;;;;;;;;-142.75;75.88;77034.88;5051110;28;19916;-78
2021/06/27 03:28:21;;;;;;;;;;;;;;;-142.75;75.97;77032.91;5069515;28;19924;-80
2021/06/27 03:30:47;;;;;;;;;;;;;;;-142.75;76.12;77032.91;5050751;28;19916;-77
2021/06/27 03:33:12;;;;;;;;;;;;;;;-142.75;76.06;77034.88;5069530;28;19967;-77
2021/06/27 03:35:37;;;;;;;;;;;;;;;-142.75;76.22;77038.81;5072881;22;19925;-79
2021/06/27 03:38:23;;;;;;;;;;;;;;;-142.75;76.06;77040.78;5053921;28;19944;-79
2021/06/27 03:40:49;;;;;;;;;;;;;;;-142.75;76.31;77030.94;5055410;28;19917;-79
2021/06/27 03:43:14;;;;;;;;;;;;;;;-142.75;76.86;77023.06;5056420;28;19932;-79
2021/06/27 03:45:39;;;;;;;;;;;;;;;-142.75;76.75;77032.91;5057032;28;19924;-78
2021/06/27 03:48:05;;;;;;;;;;;;;;;-142.75;77.01;77023.06;5056860;28;19916;-78
2021/06/27 03:50:30;;;;;;;;;;;;;;;-142.75;76.86;77032.91;5052782;28;19963;-78
2021/06/27 03:52:56;;;;;;;;;;;;;;;-142.75;76.85;77027.00;5053086;28;19916;-80
2021/06/27 03:55:21;;;;;;;;;;;;;;;-142.75;76.73;77027.00;5054844;28;20399;-78
2021/06/27 03:57:47;;;;;;;;;;;;;;;-142.75;76.73;77023.06;5056578;28;19999;-79
2021/06/27 04:00:12;;;;;;;;;;;;;;;-142.75;76.88;77019.13;5057977;28;20023;-79
2021/06/27 04:02:38;;;;;;;;;;;;;;;-142.75;76.98;77005.34;5057854;28;19916;-79
2021/06/27 04:05:04;;;;;;;;;;;;;;;-142.75;76.98;76995.50;5058875;28;19939;-79
2021/06/27 04:07:29;;;;;;;;;;;;;;;-142.75;77.10;76981.72;5058908;28;20343;-80
2021/06/27 04:09:54;;;;;;;;;;;;;;;-142.75;77.01;76975.81;5057931;28;19921;-79
2021/06/27 04:12:20;;;;;;;;;;;;;;;-142.75;76.98;76960.06;5061167;28;19924;-78
2021/06/27 04:14:45;;;;;;;;;;;;;;;-142.75;76.95;76948.25;5060937;28;19940;-79
2021/06/27 04:17:12;;;;;;;;;;;;;;;-142.75;76.98;76936.44;5055871;28;19916;-78
2021/06/27 04:19:37;;;;;;;;;;;;;;;-142.75;77.12;76916.75;5057966;28;20397;-78
2021/06/27 04:22:03;;;;;;;;;;;;;;;-142.75;77.22;76901.00;5057619;28;19924;-78
2021/06/27 04:24:28;;;;;;;;;;;;;;;-142.75;77.26;76887.22;5056921;28;19920;-78
2021/06/27 04:26:53;;;;;;;;;;;;;;;-142.75;77.34;76869.50;5059269;28;19917;-79
2021/06/27 04:29:18;;;;;;;;;;;;;;;-142.75;77.35;76849.81;5058431;28;20345;-79
2021/06/27 04:31:44;;;;;;;;;;;;;;;-142.75;77.35;76832.09;5058185;28;19951;-79
2021/06/27 04:34:10;;;;;;;;;;;;;;;-142.75;77.22;76810.44;5056785;28;19917;-80
2021/06/27 04:36:35;;;;;;;;;;;;;;;-142.75;77.13;76792.75;5055245;28;20382;-81
2021/06/27 04:39:01;;;;;;;;;;;;;;;-142.75;77.03;76771.09;5056986;28;19964;-81
2021/06/27 04:41:26;;;;;;;;;;;;;;;-142.75;76.53;76755.34;5056662;28;19954;-78
2021/06/27 04:43:51;;;;;;;;;;;;;;;-142.75;76.19;76747.47;5055535;28;19950;-80
2021/06/27 04:46:17;;;;;;;;;;;;;;;-142.75;75.88;76739.59;5055468;28;20437;-80
2021/06/27 04:48:42;;;;;;;;;;;;;;;-142.75;75.59;76731.72;5055809;28;19952;-79
2021/06/27 04:51:07;;;;;;;;;;;;;;;-142.75;75.33;76721.88;5054730;28;19916;-79
2021/06/27 04:53:32;;;;;;;;;;;;;;;-142.75;75.15;76723.84;5057366;28;19917;-80
2021/06/27 04:55:58;;;;;;;;;;;;;;;-142.75;74.93;76723.84;5056868;28;19917;-79
2021/06/27 04:58:24;;;;;;;;;;;;;;;-142.75;75.01;76715.97;5055091;28;20015;-78
2021/06/27 05:00:49;;;;;;;;;;;;;;;-142.75;75.28;76715.97;5054601;28;19924;-79
2021/06/27 05:03:14;;;;;;;;;;;;;;;-142.75;75.24;76717.94;5053318;28;20007;-81
2021/06/27 05:05:39;;;;;;;;;;;;;;;-142.75;75.30;76715.97;5055862;28;19916;-79
2021/06/27 05:08:04;;;;;;;;;;;;;;;-142.75;75.05;76714.00;5056300;28;20367;-81
2021/06/27 05:10:30;;;;;;;;;;;;;;;-142.75;74.97;76715.97;5055086;28;19916;-79
2021/06/27 05:12:55;;;;;;;;;;;;;;;-142.75;75.08;76712.03;5055517;28;19951;-79
2021/06/27 05:15:20;;;;;;;;;;;;;;;-142.75;74.91;76706.13;5055330;28;20399;-78
2021/06/27 05:17:45;;;;;;;;;;;;;;;-142.75;74.62;76704.16;5056383;28;20382;-78
2021/06/27 05:20:11;;;;;;;;;;;;;;;-142.75;74.31;76696.28;5055807;28;20395;-78
2021/06/27 05:22:36;;;;;;;;;;;;;;;-142.75;74.29;76686.44;5059635;28;19924;-79
2021/06/27 05:25:02;;;;;;;;;;;;;;;-142.75;74.20;76682.50;5060056;28;20310;-79
2021/06/27 05:27:27;;;;;;;;;;;;;;;-142.75;73.49;76668.72;5060609;28;19917;-78
2021/06/27 05:29:52;;;;;;;;;;;;;;;-142.75;73.19;76647.06;5058643;28;19917;-78
2021/06/27 05:32:18;;;;;;;;;;;;;;;-142.75;72.58;76635.25;5060856;28;20015;-80
2021/06/27 05:34:43;;;;;;;;;;;;;;;-142.75;72.42;76615.56;5060633;28;19917;-78
2021/06/27 05:37:09;;;;;;;;;;;;;;;-142.75;72.21;76588.00;5058345;28;22588;-78
2021/06/27 05:39:34;;;;;;;;;;;;;;;-142.75;72.05;76570.28;5059063;28;19925;-81
2021/06/27 05:41:59;;;;;;;;;;;;;;;-142.75;71.01;76552.56;5059671;28;19928;-77
2021/06/27 05:44:24;;;;;;;;;;;;;;;-142.75;70.73;76536.84;5058993;28;20051;-77
2021/06/27 05:46:50;;;;;;;;;;;;;;;-142.75;70.29;76534.84;5057931;28;20011;-80
2021/06/27 05:49:15;;;;;;;;;;;;;;;-142.75;69.48;76523.06;5057968;28;19956;-78
2021/06/27 05:51:43;;;;;;;;;;;;;;;-142.75;69.63;76513.22;5057387;28;19916;-79
2021/06/27 05:54:09;;;;;;;;;;;;;;;-142.75;69.32;76515.19;5058892;28;19986;-78
2021/06/27 05:56:35;;;;;;;;;;;;;;;-142.75;68.05;76538.78;5054775;28;20267;-78
2021/06/27 05:59:00;;;;;;;;;;;;;;;-142.75;68.31;76548.63;5057470;28;19916;-78
2021/06/27 06:01:25;;;;;;;;;;;;;;;-142.75;69.13;76546.66;5056363;28;19924;-78
2021/06/27 06:03:50;;;;;;;;;;;;;;;-142.75;69.64;76558.47;5055528;28;19921;-80
2021/06/27 06:06:16;;;;;;;;;;;;;;;-142.75;69.44;76564.38;5057000;28;19939;-78
2021/06/27 06:08:42;;;;;;;;;;;;;;;-142.75;69.09;76570.28;5055995;28;19923;-78
2021/06/27 06:11:08;;;;;;;;;;;;;;;-142.75;69.83;76574.22;5056920;28;19924;-79
2021/06/27 06:13:33;;;;;;;;;;;;;;;-142.75;70.07;76568.31;5055763;28;20424;-78
2021/06/27 06:15:58;;;;;;;;;;;;;;;-142.75;69.01;76574.22;5055251;28;19917;-78
2021/06/27 06:18:24;;;;;;;;;;;;;;;-142.75;69.90;76570.28;5056993;28;20364;-79
2021/06/27 06:20:49;;;;;;;;;;;;;;;-142.75;69.40;76566.34;5055067;28;20019;-78
2021/06/27 06:23:14;;;;;;;;;;;;;;;-142.75;69.08;76574.22;5055927;28;19921;-79
2021/06/27 06:25:39;;;;;;;;;;;;;;;-142.75;68.95;76576.19;5056472;28;19956;-78
2021/06/27 06:28:05;;;;;;;;;;;;;;;-142.75;69.07;76566.34;5056262;28;19974;-78
2021/06/27 06:30:30;;;;;;;;;;;;;;;-142.75;69.72;76556.50;5056023;28;19923;-79
2021/06/27 06:32:55;;;;;;;;;;;;;;;-142.75;68.44;76572.25;5055234;28;19917;-79
2021/06/27 06:35:20;;;;;;;;;;;;;;;-142.75;68.89;76560.44;5056361;28;19916;-78
2021/06/27 06:37:46;;;;;;;;;;;;;;;-142.75;68.58;76554.53;5054303;28;19948;-78
2021/06/27 06:40:11;;;;;;;;;;;;;;;-142.75;68.82;76544.69;5055147;28;19952;-79
2021/06/27 06:42:36;;;;;;;;;;;;;;;-142.75;68.25;76532.88;5055756;28;19923;-78
2021/06/27 06:45:01;;;;;;;;;;;;;;;-142.75;67.44;76527.00;5057244;28;19921;-79
2021/06/27 06:47:26;;;;;;;;;;;;;;;-142.75;67.29;76534.84;5056843;28;19917;-78
2021/06/27 06:49:52;;;;;;;;;;;;;;;-142.75;67.67;76534.84;5055713;28;19917;-77
2021/06/27 06:52:17;;;;;;;;;;;;;;;-142.75;67.31;76527.00;5055634;28;19939;-79
2021/06/27 06:54:42;;;;;;;;;;;;;;;-142.75;67.71;76523.06;5056565;28;20011;-78
2021/06/27 06:57:08;;;;;;;;;;;;;;;-142.75;67.75;76519.13;5053808;28;20013;-78
2021/06/27 06:59:33;;;;;;;;;;;;;;;-142.75;67.74;76511.25;5053938;28;20290;-79
2021/06/27 07:01:58;;;;;;;;;;;;;;;-142.75;66.73;76503.38;5053615;28;19940;-77
2021/06/27 07:04:23;;;;;;;;;;;;;;;-142.75;66.97;76499.44;5054415;28;20302;-78
2021/06/27 07:06:48;;;;;;;;;;;;;;;-142.75;66.37;76491.56;5053434;28;19963;-78
2021/06/27 07:09:14;;;;;;;;;;;;;;;-142.75;66.42;76495.50;5053844;28;19920;-78
2021/06/27 07:11:39;;;;;;;;;;;;;;;-142.75;66.06;76489.59;5052920;28;20015;-80
2021/06/27 07:14:04;;;;;;;;;;;;;;;-142.75;66.20;76487.63;5054547;28;19943;-77
2021/06/27 07:16:29;;;;;;;;;;;;;;;-142.75;65.30;76464.00;5052601;28;19923;-77
2021/06/27 07:18:55;;;;;;;;;;;;;;;-142.75;65.57;76460.06;5049060;28;19916;-78
2021/06/27 07:21:20;;;;;;;;;;;;;;;-142.75;64.74;76464.00;5049609;28;19924;-77
2021/06/27 07:23:45;;;;;;;;;;;;;;;-142.75;65.34;76458.09;5050677;28;19921;-77
2021/06/27 07:26:11;;;;;;;;;;;;;;;-142.75;65.33;76444.31;5049003;28;19986;-78
2021/06/27 07:28:36;;;;;;;;;;;;;;;-142.75;64.04;76436.44;5049104;28;19927;-78
2021/06/27 07:31:01;;;;;;;;;;;;;;;-142.75;64.32;76428.56;5050797;28;20293;-77
2021/06/27 07:33:26;;;;;;;;;;;;;;;-142.75;64.23;76414.78;5051083;28;19956;-78
2021/06/27 07:35:52;;;;;;;;;;;;;;;-142.75;63.46;76397.06;5050697;28;19947;-78
2021/06/27 07:38:17;;;;;;;;;;;;;;;-142.75;63.46;76391.16;5050422;28;19928;-78
2021/06/27 07:40:42;;;;;;;;;;;;;;;-142.75;63.77;76377.38;5051817;28;20011;-78
2021/06/27 07:43:07;;;;;;;;;;;;;;;-142.75;63.48;76361.63;5051461;28;19921;-78
2021/06/27 07:45:33;;;;;;;;;;;;;;;-142.75;62.12;76341.97;5049817;28;20425;-78
2021/06/27 07:47:58;;;;;;;;;;;;;;;-142.75;61.68;76349.81;5051977;28;19916;-78
2021/06/27 07:50:23;;;;;;;;;;;;;;;-142.75;61.76;76355.72;5049139;28;19995;-78
2021/06/27 07:52:48;;;;;;;;;;;;;;;-142.75;61.85;76326.22;5048665;28;19980;-77
2021/06/27 07:55:14;;;;;;;;;;;;;;;-142.75;60.37;76298.66;5048076;28;19953;-77
2021/06/27 07:57:39;;;;;;;;;;;;;;;-142.75;60.77;76255.34;5049940;28;19917;-77
2021/06/27 08:00:07;;;;;;;;;;;;;;;-142.75;58.89;76239.59;5050897;28;19920;-79
2021/06/27 08:02:33;;;;;;;;;;;;;;;-142.75;59.34;76208.09;5049762;28;19917;-78
2021/06/27 08:04:58;;;;;;;;;;;;;;;-142.75;58.17;76202.19;5048881;28;19928;-77
2021/06/27 08:07:23;;;;;;;;;;;;;;;-142.75;58.25;76243.53;5048995;28;19917;-77
2021/06/27 08:09:48;;;;;;;;;;;;;;;-142.75;60.31;76208.09;5047982;28;19917;-78
2021/06/27 08:12:13;;;;;;;;;;;;;;;-142.75;58.26;76153.00;5048691;28;19923;-78
2021/06/27 08:14:38;;;;;;;;;;;;;;;-142.75;58.67;76121.50;5050204;28;20023;-78
2021/06/27 08:17:06;;;;;;;;;;;;;;;-142.75;57.94;76131.34;5050671;28;20015;-78
2021/06/27 08:19:31;;;;;;;;;;;;;;;-142.75;57.63;76127.41;5051802;28;19947;-78
2021/06/27 08:21:56;;;;;;;;;;;;;;;-142.75;56.43;76086.06;5053231;28;19924;-78
2021/06/27 08:24:21;;;;;;;;;;;;;;;-142.75;55.20;76050.66;5049339;28;19928;-78
2021/06/27 08:26:47;;;;;;;;;;;;;;;-142.75;54.22;76015.22;5050340;28;19917;-79
2021/06/27 08:29:12;;;;;;;;;;;;;;;-142.75;56.58;75952.25;5049695;28;20003;-77
2021/06/27 08:31:37;;;;;;;;;;;;;;;-142.75;55.52;75822.34;5051521;28;19979;-78
2021/06/27 08:34:02;;;;;;;;;;;;;;;-142.75;51.12;75692.44;5050883;28;20456;-77
2021/06/27 08:36:29;;;;;;;;;;;;;;;-142.75;47.00;75621.59;5051974;28;19956;-79
2021/06/27 08:38:54;;;;;;;;;;;;;;;-142.75;49.05;75702.28;5049542;28;19917;-77
2021/06/27 08:41:20;;;;;;;;;;;;;;;-142.75;49.04;75633.41;5050390;28;19931;-77
2021/06/27 08:43:45;;;;;;;;;;;;;;;-142.75;46.57;75635.38;5049995;28;20052;-78
2021/06/27 08:46:11;;;;;;;;;;;;;;;-142.75;48.25;75668.84;5049633;28;20006;-78
2021/06/27 08:48:38;;;;;;;;;;;;;;;-142.75;47.65;75603.88;5049419;28;19950;-77
2021/06/27 08:51:04;;;;;;;;;;;;;;;-142.75;48.31;75468.09;5048245;28;19921;-77
2021/06/27 08:53:29;;;;;;;;;;;;;;;-142.75;46.13;75350.03;5048985;28;19925;-78
2021/06/27 08:56:07;;;;;;;;;;;;;;;-142.75;42.64;75355.94;5048283;28;20058;-78
2021/06/27 08:58:33;;;;;;;;;;;;;;;-142.75;44.71;75452.34;5051687;28;20008;-78
2021/06/27 09:00:59;;;;;;;;;;;;;;;-142.75;46.63;75513.38;5051913;28;19960;-77
2021/06/27 09:03:24;;;;;;;;;;;;;;;-142.75;45.43;75448.41;5050654;28;19924;-77
2021/06/27 09:05:49;;;;;;;;;;;;;;;-142.75;44.42;75389.38;5053331;28;19924;-79
2021/06/27 09:08:16;;;;;;;;;;;;;;;-142.75;45.84;75338.22;5053770;28;19920;-79
2021/06/27 09:10:41;;;;;;;;;;;;;;;-142.75;43.63;75228.00;5053648;28;20015;-78
2021/06/27 09:13:06;;;;;;;;;;;;;;;-142.75;41.32;75159.16;5055249;28;19987;-78
2021/06/27 09:15:43;;;;;;;;;;;;;;;-142.75;42.40;75287.06;5052130;28;19921;-78
2021/06/27 09:18:14;;;;;;;;;;;;;;;-142.75;42.09;75214.25;5053096;28;19943;-79
2021/06/27 09:20:40;;;;;;;;;;;;;;;-142.75;42.24;75257.53;5052335;28;19923;-79
2021/06/27 09:23:06;;;;;;;;;;;;;;;-142.75;43.37;75328.38;5051520;28;19924;-79
2021/06/27 09:25:31;;;;;;;;;;;;;;;-142.75;44.00;75420.88;5052726;28;20287;-79
2021/06/27 09:27:58;;;;;;;;;;;;;;;-142.75;42.76;75318.53;5052407;28;19917;-79
2021/06/27 09:30:24;;;;;;;;;;;;;;;-142.75;42.94;75287.06;5051987;28;20370;-77
2021/06/27 09:32:50;;;;;;;;;;;;;;;-142.75;41.41;75235.88;5052204;28;19924;-78
2021/06/27 09:35:37;;;;;;;;;;;;;;;-142.75;41.50;75167.00;5051112;28;20301;-79
2021/06/27 09:38:20;;;;;;;;;;;;;;;-142.75;42.78;75131.59;5107857;22;19924;-83
2021/06/27 09:40:46;;;;;;;;;;;;;;;-142.75;43.27;75141.44;5080391;28;19927;-82
2021/06/27 09:43:11;;;;;;;;;;;;;;;-142.75;40.91;75279.19;5087126;28;19920;-81
2021/06/27 09:45:47;;;;;;;;;;;;;;;-142.75;41.01;75218.19;5086173;28;19924;-81
2021/06/27 09:48:12;;;;;;;;;;;;;;;-142.75;42.42;75198.50;5093647;28;19976;-83
2021/06/27 09:50:37;;;;;;;;;;;;;;;-142.75;41.31;75186.69;5083233;28;20007;-82
2021/06/27 09:53:03;;;;;;;;;;;;;;;-142.75;39.98;75080.44;5094569;28;19916;-81
2021/06/27 09:55:28;;;;;;;;;;;;;;;-142.75;40.07;75094.22;5093279;28;19998;-79
2021/06/27 09:58:12;;;;;;;;;;;;;;;-142.75;39.31;75149.31;5093441;28;19920;-81
2021/06/27 10:00:39;;;;;;;;;;;;;;;-142.75;38.49;75023.38;5091067;28;19923;-78
2021/06/27 10:03:04;;;;;;;;;;;;;;;-142.75;40.27;75111.91;5084058;28;19916;-80
2021/06/27 10:05:30;;;;;;;;;;;;;;;-142.75;40.23;75159.16;5092371;28;19927;-80
2021/06/27 10:07:56;;;;;;;;;;;;;;;-142.75;42.28;75109.94;5082618;28;20394;-79
2021/06/27 10:10:21;;;;;;;;;;;;;;;-142.75;39.58;75027.31;5091881;28;20300;-81
2021/06/27 10:12:47;;;;;;;;;;;;;;;-142.75;38.99;75194.56;5071946;28;20311;-78
2021/06/27 10:15:15;;;;;;;;;;;;;;;-142.75;40.05;75237.84;5071208;28;19948;-79
2021/06/27 10:17:41;;;;;;;;;;;;;;;-142.75;39.05;75149.31;5090752;28;19924;-78
2021/06/27 10:20:08;;;;;;;;;;;;;;;-142.75;40.52;75157.19;5090492;28;19968;-77
2021/06/27 10:22:34;;;;;;;;;;;;;;;-142.75;42.42;75072.56;5090206;28;19923;-76
2021/06/27 10:24:59;;;;;;;;;;;;;;;-142.75;40.02;74952.53;5079941;28;19920;-78
2021/06/27 10:27:24;;;;;;;;;;;;;;;-142.75;37.59;74942.69;5089870;28;19916;-76
2021/06/27 10:29:50;;;;;;;;;;;;;;;-142.75;38.61;74950.56;5075359;28;20156;-77
2021/06/27 10:32:17;;;;;;;;;;;;;;;-142.75;37.94;75074.53;5071368;28;19916;-74
2021/06/27 10:34:43;;;;;;;;;;;;;;;-142.75;38.96;75109.94;5090001;28;20416;-76
2021/06/27 10:37:12;;;;;;;;;;;;;;;-142.75;38.23;75090.28;5089478;28;19959;-77
2021/06/27 10:39:38;;;;;;;;;;;;;;;-142.75;37.90;75106.00;5089914;28;20369;-77
2021/06/27 10:42:04;;;;;;;;;;;;;;;-142.75;38.18;75109.94;5089294;28;20017;-75
2021/06/27 10:44:32;;;;;;;;;;;;;;;-142.75;38.25;75129.63;5089080;28;19943;-74
2021/06/27 10:46:59;;;;;;;;;;;;;;;-142.75;40.07;75143.41;5089388;28;19942;-76
2021/06/27 10:49:31;;;;;;;;;;;;;;;-142.75;37.73;75054.84;5089980;28;20293;-77
2021/06/27 10:52:16;;;;;;;;;;;;;;;-142.75;38.26;75031.25;5089409;28;19935;-76
2021/06/27 10:54:43;;;;;;;;;;;;;;;-142.75;38.47;75078.47;5077536;28;19916;-73
2021/06/27 10:57:16;;;;;;;;;;;;;;;-142.75;39.76;75086.34;5090086;28;20372;-75
2021/06/27 10:59:41;;;;;;;;;;;;;;;-142.75;36.25;74972.22;5088149;28;19927;-75
2021/06/27 11:02:25;;;;;;;;;;;;;;;-142.75;35.00;74917.13;5089605;28;19915;-75
2021/06/27 11:04:52;;;;;;;;;;;;;;;-142.75;37.41;74840.38;5089782;28;20010;-75
2021/06/27 11:07:38;;;;;;;;;;;;;;;-142.75;37.57;74871.84;5089840;28;19916;-77
2021/06/27 11:10:18;;;;;;;;;;;;;;;-142.75;36.06;74960.41;5072165;28;19917;-76
2021/06/27 11:13:07;;;;;;;;;;;;;;;-142.75;39.60;75062.72;5070918;28;19924;-78
2021/06/27 11:15:33;;;;;;;;;;;;;;;-142.75;36.42;74956.47;5083331;28;20000;-76
2021/06/27 11:18:03;;;;;;;;;;;;;;;-142.75;37.52;75031.25;5072431;28;19923;-75
2021/06/27 11:20:29;;;;;;;;;;;;;;;-142.75;37.23;75102.06;5071221;28;19963;-75
2021/06/27 11:22:56;;;;;;;;;;;;;;;-142.75;38.47;75172.91;5070213;28;20027;-75
2021/06/27 11:25:40;;;;;;;;;;;;;;;-142.75;37.97;75168.97;5070382;28;19920;-77
2021/06/27 11:28:18;;;;;;;;;;;;;;;-142.75;37.80;75196.53;5074426;28;20430;-73
2021/06/27 11:30:53;;;;;;;;;;;;;;;-142.75;39.55;75228.00;5088528;28;19963;-75
2021/06/27 11:33:21;;;;;;;;;;;;;;;-142.75;39.33;75271.31;5077140;28;19916;-75
2021/06/27 11:35:53;;;;;;;;;;;;;;;-142.75;39.09;75253.59;5086365;28;19998;-76
2021/06/27 11:38:37;;;;;;;;;;;;;;;-142.75;38.77;75277.22;5088303;28;19923;-75
2021/06/27 11:41:03;;;;;;;;;;;;;;;-142.75;39.33;75292.97;5088767;28;20010;-76
2021/06/27 11:43:47;;;;;;;;;;;;;;;-142.75;38.42;75294.94;5071290;28;19920;-75
2021/06/27 11:46:30;;;;;;;;;;;;;;;-142.75;39.75;75277.22;5087794;28;19945;-73
2021/06/27 11:48:56;;;;;;;;;;;;;;;-142.75;37.63;75302.78;5088234;28;19916;-76
2021/06/27 11:51:34;;;;;;;;;;;;;;;-142.75;38.11;75344.13;5088320;28;20381;-76
2021/06/27 11:54:00;;;;;;;;;;;;;;;-142.75;38.86;75393.31;5076882;28;20319;-75
2021/06/27 11:56:25;;;;;;;;;;;;;;;-142.75;39.13;75357.91;5088536;28;19998;-76
2021/06/27 11:59:07;;;;;;;;;;;;;;;-142.75;38.84;75334.28;5088814;28;19916;-77
2021/06/27 12:01:33;;;;;;;;;;;;;;;-142.75;39.13;75401.19;5088821;28;19916;-77
2021/06/27 12:03:58;;;;;;;;;;;;;;;-142.75;38.69;75393.31;5090001;28;19927;-75
2021/06/27 12:06:33;;;;;;;;;;;;;;;-142.75;39.39;75436.59;5079188;28;19916;-76
2021/06/27 12:08:58;;;;;;;;;;;;;;;-142.75;40.21;75464.16;5090212;28;19916;-76
2021/06/27 12:11:23;;;;;;;;;;;;;;;-142.75;40.77;75454.31;5089922;28;20304;-76
2021/06/27 12:13:50;;;;;;;;;;;;;;;-142.75;39.35;75470.06;5089953;28;19970;-76
2021/06/27 12:16:15;;;;;;;;;;;;;;;-142.75;40.06;75483.84;5090075;28;19959;-76
2021/06/27 12:18:40;;;;;;;;;;;;;;;-142.75;40.78;75464.16;5078941;28;19986;-76
2021/06/27 12:21:08;;;;;;;;;;;;;;;-142.75;39.43;75450.38;5071865;28;20403;-76
2021/06/27 12:23:35;;;;;;;;;;;;;;;-142.75;42.10;75373.63;5078729;28;19920;-75
2021/06/27 12:26:02;;;;;;;;;;;;;;;-142.75;40.34;75357.91;5073734;28;19920;-76